Time;durP1;ratioP1;P1;durP2;ratioP2;P2;SDS_P1;SDS_P2;PMS_P1;PMS_P2;Temp;Humidity;BMP_temperature;BMP_pressure;BME280_temperature;BME280_humidity;BME280_pressure;Samples;Min_cycle;Max_cycle;Signal;HPM_P1;HPM_P2
2023/01/04 00:01:54;;;;;;;16.97;7.93;;;6.00;43.30;;;;;;10443410;28;20237;-68
2023/01/04 00:06:57;;;;;;;19.17;8.03;;;6.10;43.10;;;;;;10449195;28;20221;-68
2023/01/04 00:12:02;;;;;;;7.33;6.63;;;6.10;43.00;;;;;;10452144;28;20241;-68
2023/01/04 00:17:05;;;;;;;10.47;7.50;;;6.10;43.30;;;;;;10438466;28;20589;-68
2023/01/04 00:22:08;;;;;;;19.97;7.37;;;6.10;43.30;;;;;;10454114;28;20311;-67
2023/01/04 00:27:12;;;;;;;11.83;7.00;;;6.20;43.50;;;;;;10450079;28;20249;-68
2023/01/04 00:32:15;;;;;;;11.80;6.73;;;6.30;43.70;;;;;;10446017;28;20768;-68
2023/01/04 00:37:18;;;;;;;26.67;6.53;;;6.30;43.30;;;;;;10454815;28;20664;-68
2023/01/04 00:42:23;;;;;;;30.30;7.40;;;6.30;43.20;;;;;;10444668;28;20237;-68
2023/01/04 00:47:26;;;;;;;12.83;6.57;;;6.30;43.40;;;;;;10434112;28;20240;-68
2023/01/04 00:52:29;;;;;;;31.67;6.73;;;6.30;43.30;;;;;;10447170;28;20232;-68
2023/01/04 00:57:34;;;;;;;28.50;6.60;;;6.30;43.40;;;;;;10454125;28;20239;-68
2023/01/04 01:02:37;;;;;;;24.13;6.70;;;6.20;43.60;;;;;;10451845;28;20241;-68
2023/01/04 01:07:40;;;;;;;24.77;6.70;;;6.20;43.20;;;;;;10444671;28;20233;-68
2023/01/04 01:12:45;;;;;;;7.27;6.20;;;6.20;43.50;;;;;;10442847;28;20240;-68
2023/01/04 01:17:48;;;;;;;35.40;5.77;;;6.20;43.70;;;;;;10448147;28;20224;-68
2023/01/04 01:22:51;;;;;;;23.20;5.50;;;6.20;43.70;;;;;;10442403;28;20604;-68
2023/01/04 01:27:55;;;;;;;16.27;5.10;;;6.20;43.70;;;;;;10450463;28;20225;-68
2023/01/04 01:32:59;;;;;;;39.03;5.83;;;6.20;44.10;;;;;;10431534;28;20228;-68
2023/01/04 01:38:02;;;;;;;51.57;6.30;;;6.30;43.80;;;;;;10449712;28;20225;-69
2023/01/04 01:43:16;;;;;;;27.33;6.10;;;6.30;43.80;;;;;;10444158;28;20750;-69
2023/01/04 01:48:26;;;;;;;5.80;5.20;;;6.30;44.60;;;;;;10445819;28;20235;-69
2023/01/04 01:53:37;;;;;;;7.00;6.40;;;6.30;44.20;;;;;;10436241;28;20241;-69
2023/01/04 01:58:45;;;;;;;6.70;6.10;;;6.40;44.30;;;;;;10434758;28;20235;-69
2023/01/04 02:03:48;;;;;;;7.23;6.10;;;6.40;44.30;;;;;;10449409;28;20639;-67
2023/01/04 02:08:52;;;;;;;8.03;6.57;;;6.40;43.90;;;;;;10448195;28;20237;-67
2023/01/04 02:19:46;;;;;;;17.07;6.80;;;6.40;44.60;;;;;;10449611;28;20226;-71
2023/01/04 02:25:19;;;;;;;8.50;6.83;;;6.40;45.80;;;;;;10439141;28;20232;-72
2023/01/04 02:30:51;;;;;;;14.30;6.80;;;6.40;45.30;;;;;;10407912;28;20763;-71
2023/01/04 02:36:05;;;;;;;8.00;7.20;;;6.50;45.30;;;;;;10456196;28;20608;-72
2023/01/04 02:41:18;;;;;;;7.33;6.53;;;6.50;44.80;;;;;;10460062;28;20243;-71
2023/01/04 02:46:27;;;;;;;8.27;7.37;;;6.50;45.10;;;;;;10453926;28;20225;-71
2023/01/04 02:51:34;;;;;;;9.50;7.60;;;6.50;45.10;;;;;;10456432;28;20245;-71
2023/01/04 02:56:59;;;;;;;14.27;7.73;;;6.60;45.10;;;;;;10455149;28;20241;-72
2023/01/04 03:07:53;;;;;;;15.47;8.07;;;6.60;45.30;;;;;;10437737;28;20659;-68
2023/01/04 03:13:06;;;;;;;8.67;7.27;;;6.60;45.20;;;;;;10446933;28;20811;-68
2023/01/04 03:18:15;;;;;;;9.93;7.90;;;6.60;45.30;;;;;;10446701;28;20239;-68
2023/01/04 03:50:37;;;;;;;9.53;7.90;;;6.90;45.70;;;;;;10437489;28;20880;-68
2023/01/04 03:55:43;;;;;;;12.07;8.43;;;7.00;45.50;;;;;;10444883;28;20303;-68
2023/01/04 04:00:46;;;;;;;7.63;6.83;;;7.00;45.40;;;;;;10443353;28;20232;-68
2023/01/04 04:16:28;;;;;;;12.83;8.23;;;7.10;45.00;;;;;;10436407;28;20233;-68
2023/01/04 04:21:32;;;;;;;55.43;9.27;;;7.10;44.70;;;;;;10436749;28;20233;-68
2023/01/04 04:26:36;;;;;;;73.80;9.37;;;7.10;44.80;;;;;;10443325;28;20229;-68
2023/01/04 04:31:40;;;;;;;62.07;9.77;;;7.10;45.10;;;;;;10446521;28;20232;-68
2023/01/04 04:36:43;;;;;;;49.60;9.57;;;7.20;45.10;;;;;;10450238;28;20233;-68
2023/01/04 04:41:47;;;;;;;44.97;9.67;;;7.10;45.10;;;;;;10440024;28;20244;-68
2023/01/04 04:46:50;;;;;;;47.10;9.67;;;7.10;45.60;;;;;;10452496;28;20738;-68
2023/01/04 04:51:54;;;;;;;54.60;9.13;;;7.20;45.30;;;;;;10450422;28;20233;-72
2023/01/04 04:56:58;;;;;;;21.63;8.17;;;7.10;45.30;;;;;;10449783;28;20221;-72
2023/01/04 05:02:01;;;;;;;44.43;8.87;;;7.10;45.70;;;;;;10456674;28;21077;-72
2023/01/04 05:07:05;;;;;;;23.13;8.07;;;7.10;45.50;;;;;;10453295;28;20315;-68
2023/01/04 05:17:36;;;;;;;30.40;7.57;;;7.10;46.00;;;;;;10459529;28;20826;-67
2023/01/04 05:22:39;;;;;;;8.47;7.10;;;7.10;45.70;;;;;;10455070;28;20230;-67
2023/01/04 05:27:44;;;;;;;8.83;7.43;;;7.10;45.70;;;;;;10441471;28;20256;-69
2023/01/04 05:32:47;;;;;;;7.53;6.83;;;7.10;46.10;;;;;;10439385;28;20616;-67
2023/01/04 05:37:51;;;;;;;7.77;7.07;;;7.00;45.80;;;;;;10447120;28;20224;-69
2023/01/04 05:42:56;;;;;;;8.17;7.47;;;7.00;46.00;;;;;;10451405;28;20604;-69
2023/01/04 05:47:59;;;;;;;8.80;8.00;;;7.00;46.40;;;;;;10449040;28;20266;-69
2023/01/04 05:53:02;;;;;;;7.43;6.73;;;7.10;46.20;;;;;;10440342;28;20233;-69
2023/01/04 05:58:06;;;;;;;9.07;8.27;;;7.10;46.20;;;;;;10439583;28;20593;-69
2023/01/04 06:03:09;;;;;;;7.30;6.70;;;7.10;46.50;;;;;;10436778;28;20241;-69
2023/01/04 06:08:13;;;;;;;7.40;6.70;;;7.20;46.20;;;;;;10446523;28;20242;-69
2023/01/04 06:13:18;;;;;;;8.33;7.63;;;7.20;46.30;;;;;;10449734;28;20784;-69
2023/01/04 06:18:21;;;;;;;7.67;7.03;;;7.30;46.60;;;;;;10436718;28;21249;-69
2023/01/04 06:23:24;;;;;;;7.00;6.40;;;7.30;46.20;;;;;;10447163;28;20244;-69
2023/01/04 06:28:29;;;;;;;7.70;7.00;;;7.30;46.20;;;;;;10445770;28;20229;-69
2023/01/04 06:33:39;;;;;;;7.10;6.50;;;7.30;46.40;;;;;;10446760;28;20229;-69
2023/01/04 06:38:42;;;;;;;9.37;8.57;;;7.40;46.00;;;;;;10432675;28;20295;-69
2023/01/04 06:43:47;;;;;;;7.93;7.23;;;7.40;46.00;;;;;;10438268;28;20237;-69
2023/01/04 06:48:51;;;;;;;8.90;8.10;;;7.40;46.30;;;;;;10435420;28;20236;-69
2023/01/04 06:53:54;;;;;;;9.23;8.40;;;7.40;46.10;;;;;;10450049;28;20232;-69
2023/01/04 06:58:59;;;;;;;7.67;7.03;;;7.40;46.30;;;;;;10438974;28;20250;-69
2023/01/04 07:04:02;;;;;;;8.40;7.60;;;7.40;46.60;;;;;;10441341;28;20237;-69
2023/01/04 07:09:05;;;;;;;7.17;6.57;;;7.50;46.40;;;;;;10441815;28;20267;-69
2023/01/04 07:14:09;;;;;;;8.97;8.17;;;7.50;46.20;;;;;;10451679;28;20636;-69
2023/01/04 07:19:12;;;;;;;7.93;7.13;;;7.60;46.30;;;;;;10448558;28;20735;-69
2023/01/04 07:24:16;;;;;;;8.50;7.73;;;7.70;46.00;;;;;;10440170;28;20286;-69
2023/01/04 07:29:21;;;;;;;8.27;7.50;;;7.70;45.90;;;;;;10436867;28;20232;-69
2023/01/04 07:34:25;;;;;;;8.40;7.60;;;7.70;45.90;;;;;;10440744;28;20253;-69
2023/01/04 07:39:28;;;;;;;7.60;6.97;;;7.70;45.80;;;;;;10451684;28;20239;-69
2023/01/04 07:44:33;;;;;;;8.43;7.63;;;7.60;45.70;;;;;;10441205;28;20235;-69
2023/01/04 07:49:36;;;;;;;8.20;7.40;;;7.50;46.20;;;;;;10441001;28;20351;-70
2023/01/04 07:54:39;;;;;;;8.13;7.43;;;7.50;46.30;;;;;;10437923;28;20229;-69
2023/01/04 07:59:44;;;;;;;8.20;7.47;;;7.50;46.70;;;;;;10433191;28;20235;-69
2023/01/04 08:04:47;;;;;;;8.63;7.83;;;7.50;47.40;;;;;;10447368;28;20243;-69
2023/01/04 08:09:50;;;;;;;7.93;7.23;;;7.60;47.40;;;;;;10435439;28;20274;-69
2023/01/04 08:14:55;;;;;;;8.53;7.73;;;7.70;47.60;;;;;;10448602;28;20640;-68
2023/01/04 08:20:00;;;;;;;7.87;7.17;;;7.80;48.30;;;;;;10447842;28;20229;-67
2023/01/04 08:25:05;;;;;;;7.90;7.10;;;8.00;48.00;;;;;;10447964;28;20229;-68
2023/01/04 08:30:11;;;;;;;7.90;7.20;;;8.10;48.60;;;;;;10443445;28;20233;-69
2023/01/04 08:35:14;;;;;;;7.80;7.00;;;8.20;48.40;;;;;;10447737;28;20240;-72
2023/01/04 08:40:17;;;;;;;8.23;7.43;;;8.30;47.90;;;;;;10443894;28;20788;-68
2023/01/04 08:45:21;;;;;;;8.37;7.57;;;8.50;48.10;;;;;;10458119;28;20244;-73
2023/01/04 08:50:25;;;;;;;8.67;7.87;;;8.60;48.30;;;;;;10453021;28;20228;-68
2023/01/04 08:55:28;;;;;;;7.40;6.70;;;8.60;47.80;;;;;;10441000;28;20229;-68
2023/01/04 09:00:33;;;;;;;9.30;7.37;;;8.70;47.60;;;;;;10446354;28;20709;-69
2023/01/04 09:05:36;;;;;;;7.77;7.03;;;8.70;48.20;;;;;;10443555;28;20229;-67
2023/01/04 09:10:39;;;;;;;7.60;6.90;;;8.80;48.10;;;;;;10441883;28;20235;-67
2023/01/04 09:15:44;;;;;;;7.93;7.13;;;8.90;48.10;;;;;;10451236;28;20232;-67
2023/01/04 09:20:47;;;;;;;7.63;6.90;;;9.00;48.30;;;;;;10448336;28;20239;-68
2023/01/04 09:25:50;;;;;;;7.70;7.00;;;9.10;48.20;;;;;;10437942;28;20620;-70
2023/01/04 09:30:55;;;;;;;8.13;7.33;;;9.20;48.10;;;;;;10446299;28;20294;-67
2023/01/04 09:36:02;;;;;;;7.67;6.90;;;9.30;49.30;;;;;;10427313;28;20224;-67
2023/01/04 09:41:14;;;;;;;7.30;6.60;;;9.40;48.90;;;;;;10429764;28;20233;-69
2023/01/04 09:46:27;;;;;;;5.57;5.07;;;9.60;49.20;;;;;;10421129;28;20778;-71
2023/01/04 09:51:34;;;;;;;5.27;4.77;;;9.80;49.20;;;;;;10427233;28;20233;-67
2023/01/04 09:56:39;;;;;;;5.37;4.87;;;9.90;48.80;;;;;;10422990;28;20320;-70
2023/01/04 10:01:46;;;;;;;4.97;4.57;;;10.10;47.40;;;;;;10430187;28;20228;-71
2023/01/04 10:06:51;;;;;;;4.63;4.23;;;10.30;47.20;;;;;;10434325;28;20307;-70
2023/01/04 10:12:16;;;;;;;4.53;4.13;;;10.50;46.70;;;;;;10446141;28;20232;-71
2023/01/04 10:17:28;;;;;;;3.73;3.40;;;10.60;46.50;;;;;;10437654;28;20236;-71
2023/01/04 10:23:02;;;;;;;3.67;3.37;;;10.70;46.10;;;;;;10437002;28;20279;-70
2023/01/04 10:28:25;;;;;;;4.03;3.30;;;10.80;46.00;;;;;;10449550;28;20229;-71
2023/01/04 10:33:40;;;;;;;3.67;3.37;;;10.90;45.40;;;;;;10444256;28;20697;-71
2023/01/04 10:38:43;;;;;;;4.70;3.20;;;11.00;45.30;;;;;;10448685;28;20236;-71
2023/01/04 10:43:51;;;;;;;3.13;2.90;;;11.10;45.50;;;;;;10438122;28;20887;-71
2023/01/04 10:49:23;;;;;;;3.40;3.10;;;11.20;45.30;;;;;;10456844;28;20330;-70
2023/01/04 10:54:31;;;;;;;2.90;2.70;;;11.20;45.10;;;;;;10435396;28;20229;-71
2023/01/04 10:59:38;;;;;;;3.03;2.73;;;11.30;45.20;;;;;;10446922;28;20239;-71
2023/01/04 11:04:47;;;;;;;2.77;2.57;;;11.40;45.00;;;;;;10445246;28;20229;-72
2023/01/04 11:09:54;;;;;;;2.10;2.00;;;11.40;44.80;;;;;;10454788;28;20742;-71
2023/01/04 11:14:57;;;;;;;2.13;1.93;;;11.40;44.70;;;;;;10444999;28;20221;-71
2023/01/04 11:20:02;;;;;;;2.83;2.60;;;11.50;44.90;;;;;;10448866;28;20229;-71
2023/01/04 11:25:11;;;;;;;2.63;2.43;;;11.50;44.80;;;;;;10441075;28;20689;-70
2023/01/04 11:30:45;;;;;;;2.00;1.90;;;11.50;44.50;;;;;;10447845;28;20322;-70
2023/01/04 11:35:51;;;;;;;2.00;1.90;;;11.60;44.50;;;;;;10435234;28;20225;-71
2023/01/04 11:40:56;;;;;;;1.97;1.87;;;11.60;44.40;;;;;;10434220;28;20229;-71
2023/01/04 11:46:02;;;;;;;1.90;1.80;;;11.60;44.60;;;;;;10438052;28;20239;-70
2023/01/04 11:51:17;;;;;;;1.70;1.60;;;11.70;44.60;;;;;;10453904;28;20239;-70
2023/01/04 11:56:22;;;;;;;1.80;1.70;;;11.70;44.20;;;;;;10453634;28;20233;-71
2023/01/04 12:01:25;;;;;;;1.30;1.30;;;11.80;44.20;;;;;;10457465;28;20229;-71
2023/01/04 12:06:37;;;;;;;1.30;1.20;;;11.90;44.20;;;;;;10434333;28;20328;-72
2023/01/04 12:11:43;;;;;;;2.20;2.00;;;11.90;43.50;;;;;;10435535;28;20248;-71
2023/01/04 12:16:52;;;;;;;2.80;2.60;;;12.00;43.70;;;;;;10442522;28;20929;-71
2023/01/04 12:22:00;;;;;;;1.97;1.87;;;12.00;43.40;;;;;;10444880;28;20229;-71
2023/01/04 12:27:03;;;;;;;2.23;2.03;;;12.10;43.10;;;;;;10444185;28;20315;-71
2023/01/04 12:32:43;;;;;;;3.90;3.50;;;12.20;43.20;;;;;;10450106;28;20233;-71
2023/01/04 12:37:48;;;;;;;4.50;3.57;;;12.20;42.70;;;;;;10447925;28;21053;-72
2023/01/04 12:43:23;;;;;;;2.10;1.60;;;12.30;43.20;;;;;;10443141;28;20225;-71
2023/01/04 12:53:59;;;;;;;1.50;1.40;;;12.40;42.00;;;;;;10449386;28;20221;-71
2023/01/04 12:59:09;;;;;;;1.20;1.10;;;12.40;42.00;;;;;;10443825;28;20225;-70
2023/01/04 13:04:38;;;;;;;1.23;1.13;;;12.40;42.00;;;;;;10445271;28;20231;-71
2023/01/04 13:09:52;;;;;;;1.20;1.10;;;12.40;42.00;;;;;;10456152;28;20244;-71
2023/01/04 13:15:02;;;;;;;1.23;1.20;;;12.40;42.00;;;;;;10440554;28;20704;-72
2023/01/04 13:20:15;;;;;;;1.40;1.30;;;12.40;41.80;;;;;;10452692;28;20237;-73
2023/01/04 13:25:21;;;;;;;1.53;1.43;;;12.50;41.40;;;;;;10437417;28;20436;-71
2023/01/04 13:30:32;;;;;;;1.60;1.50;;;12.50;42.00;;;;;;10451072;28;20643;-71
2023/01/04 13:35:36;;;;;;;1.23;1.13;;;12.50;41.10;;;;;;10432334;28;20228;-72
2023/01/04 13:40:44;;;;;;;1.70;1.60;;;12.60;42.20;;;;;;10460894;28;20813;-72
2023/01/04 13:46:09;;;;;;;1.50;1.40;;;12.60;41.50;;;;;;10451584;28;20531;-72
2023/01/04 13:51:16;;;;;;;1.27;1.17;;;12.70;41.40;;;;;;10451763;28;20256;-72
2023/01/04 13:56:23;;;;;;;2.00;1.80;;;12.70;41.50;;;;;;10445957;28;20246;-72
2023/01/04 14:01:29;;;;;;;1.50;1.40;;;12.70;41.70;;;;;;10448368;28;20753;-72
2023/01/04 14:06:34;;;;;;;1.63;1.53;;;12.80;41.80;;;;;;10451194;28;20774;-72
2023/01/04 14:12:00;;;;;;;2.53;1.87;;;12.80;41.80;;;;;;10450900;28;20626;-72
2023/01/04 14:17:16;;;;;;;2.63;1.77;;;12.90;41.20;;;;;;10449037;28;20221;-71
2023/01/04 14:22:36;;;;;;;2.37;2.17;;;12.90;41.30;;;;;;10438521;28;20954;-71
2023/01/04 14:27:43;;;;;;;1.70;1.60;;;13.00;41.70;;;;;;10439616;28;20228;-72
2023/01/04 14:32:54;;;;;;;1.70;1.60;;;13.00;41.60;;;;;;10442712;28;20237;-67
2023/01/04 14:38:03;;;;;;;1.90;1.80;;;13.00;41.20;;;;;;10442631;28;20232;-66
2023/01/04 14:43:34;;;;;;;1.50;1.40;;;13.00;41.20;;;;;;10444910;28;20681;-67
2023/01/04 14:48:37;;;;;;;1.60;1.50;;;13.00;41.10;;;;;;10440901;28;20228;-67
2023/01/04 14:53:40;;;;;;;1.40;1.30;;;13.00;42.00;;;;;;10437441;28;20244;-67
2023/01/04 14:58:45;;;;;;;1.80;1.70;;;13.00;41.90;;;;;;10433074;28;20864;-70
2023/01/04 15:03:48;;;;;;;1.60;1.50;;;13.00;41.50;;;;;;10434732;28;20577;-67
2023/01/04 15:08:52;;;;;;;1.43;1.33;;;13.10;41.70;;;;;;10435865;28;20663;-67
2023/01/04 15:13:56;;;;;;;1.50;1.40;;;13.00;41.80;;;;;;10438645;28;20595;-68
2023/01/04 15:18:59;;;;;;;1.37;1.27;;;13.00;41.50;;;;;;10436904;28;20751;-68
2023/01/04 15:24:03;;;;;;;1.87;1.77;;;13.10;41.80;;;;;;10434990;28;20233;-69
2023/01/04 15:29:08;;;;;;;2.77;2.57;;;13.10;41.80;;;;;;10437183;28;20240;-69
2023/01/04 15:34:11;;;;;;;2.00;1.73;;;13.10;41.50;;;;;;10431985;28;20249;-68
2023/01/04 15:39:17;;;;;;;1.80;1.70;;;13.10;41.60;;;;;;10429668;28;20248;-68
2023/01/04 15:44:21;;;;;;;1.57;1.30;;;13.20;41.60;;;;;;10432790;28;20646;-68
2023/01/04 15:49:25;;;;;;;2.00;1.77;;;13.20;41.30;;;;;;10439934;28;20233;-69
2023/01/04 15:54:29;;;;;;;2.27;2.10;;;13.20;41.60;;;;;;10449753;28;20241;-68
2023/01/04 15:59:33;;;;;;;1.80;1.70;;;13.20;41.40;;;;;;10429565;28;20243;-68
2023/01/04 16:04:37;;;;;;;1.87;1.67;;;13.20;41.00;;;;;;10436438;28;20241;-68
2023/01/04 16:09:41;;;;;;;1.60;1.50;;;13.20;41.10;;;;;;10435170;28;20971;-69
2023/01/04 16:14:46;;;;;;;1.60;1.50;;;13.20;41.30;;;;;;10438757;28;20811;-68
2023/01/04 16:19:49;;;;;;;1.50;1.40;;;13.20;41.20;;;;;;10433611;28;20253;-68
2023/01/04 16:24:52;;;;;;;1.70;1.60;;;13.10;41.30;;;;;;10425112;28;20985;-69
2023/01/04 16:30:15;;;;;;;1.60;1.50;;;13.20;41.10;;;;;;10443163;28;20311;-69
2023/01/04 16:35:18;;;;;;;1.57;1.47;;;13.20;41.20;;;;;;10439224;28;20259;-69
2023/01/04 16:40:21;;;;;;;1.97;1.77;;;13.20;41.30;;;;;;10442879;28;20259;-69
2023/01/04 16:45:26;;;;;;;1.50;1.40;;;13.20;41.30;;;;;;10440323;28;20241;-68
2023/01/04 16:50:29;;;;;;;1.70;1.60;;;13.20;41.10;;;;;;10439916;28;20235;-69
2023/01/04 16:55:33;;;;;;;1.67;1.57;;;13.20;41.10;;;;;;10443031;28;20303;-68
2023/01/04 17:00:38;;;;;;;1.80;1.70;;;13.20;41.10;;;;;;10437849;28;20237;-68
2023/01/04 17:05:41;;;;;;;1.50;1.40;;;13.30;41.10;;;;;;10437495;28;20238;-68
2023/01/04 17:10:44;;;;;;;1.60;1.40;;;13.30;41.10;;;;;;10439192;28;20229;-69
2023/01/04 17:15:48;;;;;;;1.83;1.70;;;13.20;41.10;;;;;;10443339;28;20311;-69
2023/01/04 17:20:56;;;;;;;1.60;1.50;;;13.20;40.90;;;;;;10442196;28;20224;-69
2023/01/04 17:26:21;;;;;;;1.80;1.70;;;13.20;40.70;;;;;;10439355;28;20229;-69
2023/01/04 17:31:27;;;;;;;1.50;1.40;;;13.20;40.90;;;;;;10437425;28;20233;-70
2023/01/04 17:36:30;;;;;;;1.57;1.47;;;13.20;40.80;;;;;;10439892;28;20228;-69
2023/01/04 17:41:34;;;;;;;1.50;1.40;;;13.20;41.10;;;;;;10441322;28;20236;-70
2023/01/04 17:46:38;;;;;;;1.50;1.40;;;13.20;41.00;;;;;;10445942;28;20231;-67
2023/01/04 17:51:41;;;;;;;1.87;1.77;;;13.20;41.10;;;;;;10438924;28;20227;-67
2023/01/04 17:56:44;;;;;;;1.37;1.27;;;13.20;41.10;;;;;;10437369;28;20239;-67
2023/01/04 18:01:49;;;;;;;1.53;1.43;;;13.20;41.10;;;;;;10451401;28;20731;-73
2023/01/04 18:06:53;;;;;;;1.70;1.60;;;13.30;41.00;;;;;;10451343;28;20224;-72
2023/01/04 18:11:56;;;;;;;1.53;1.43;;;13.30;41.10;;;;;;10462065;28;20228;-72
2023/01/04 18:17:01;;;;;;;1.40;1.30;;;13.30;41.00;;;;;;10457294;28;20224;-73
2023/01/04 18:22:05;;;;;;;1.43;1.33;;;13.30;40.90;;;;;;10439490;28;20678;-70
2023/01/04 18:27:10;;;;;;;1.60;1.50;;;13.30;41.00;;;;;;10444560;28;20237;-70
2023/01/04 18:32:30;;;;;;;1.63;1.50;;;13.30;40.80;;;;;;10440248;28;20287;-74
2023/01/04 18:37:34;;;;;;;1.33;1.23;;;13.30;40.90;;;;;;10437764;28;20232;-69
2023/01/04 18:42:37;;;;;;;1.70;1.60;;;13.30;40.90;;;;;;10439219;28;20295;-69
2023/01/04 18:47:46;;;;;;;1.30;1.20;;;13.30;41.00;;;;;;10435967;28;20232;-69
2023/01/04 18:52:49;;;;;;;1.90;1.20;;;13.30;40.80;;;;;;10440117;28;20257;-68
2023/01/04 18:57:52;;;;;;;1.30;1.20;;;13.30;40.90;;;;;;10436687;28;20237;-69
2023/01/04 19:02:57;;;;;;;1.60;1.50;;;13.30;41.00;;;;;;10441817;28;20611;-69
2023/01/04 19:08:01;;;;;;;1.40;1.30;;;13.40;40.80;;;;;;10441549;28;20353;-69
2023/01/04 19:13:04;;;;;;;2.23;2.07;;;13.40;40.90;;;;;;10435115;28;20235;-69
2023/01/04 19:18:08;;;;;;;1.63;1.53;;;13.40;40.90;;;;;;10446493;28;20240;-71
2023/01/04 19:23:14;;;;;;;3.03;1.60;;;13.40;40.60;;;;;;10459256;28;20628;-68
2023/01/04 19:28:17;;;;;;;1.70;1.60;;;13.40;40.80;;;;;;10439121;28;20720;-73
2023/01/04 19:33:22;;;;;;;1.40;1.30;;;13.40;40.90;;;;;;10443685;28;20232;-66
2023/01/04 19:38:25;;;;;;;2.50;1.43;;;13.40;40.60;;;;;;10424172;28;20915;-67
2023/01/04 19:43:28;;;;;;;1.97;1.30;;;13.40;40.70;;;;;;10434108;28;20235;-67
2023/01/04 19:48:33;;;;;;;1.40;1.30;;;13.40;40.70;;;;;;10438878;28;20229;-66
2023/01/04 19:53:37;;;;;;;1.47;1.37;;;13.40;40.50;;;;;;10433281;28;20651;-67
2023/01/04 19:58:40;;;;;;;2.50;1.63;;;13.40;40.70;;;;;;10436681;28;20319;-66
2023/01/04 20:03:45;;;;;;;1.80;1.70;;;13.40;40.80;;;;;;10431629;28;20224;-66
2023/01/04 20:08:48;;;;;;;1.70;1.53;;;13.40;40.80;;;;;;10437552;28;20233;-67
2023/01/04 20:13:52;;;;;;;1.47;1.37;;;13.40;40.90;;;;;;10452492;28;20956;-67
2023/01/04 20:18:57;;;;;;;1.30;1.27;;;13.40;41.00;;;;;;10436626;28;20637;-66
2023/01/04 20:24:01;;;;;;;1.90;1.27;;;13.50;41.00;;;;;;10437406;28;20311;-67
2023/01/04 20:29:04;;;;;;;1.93;1.53;;;13.50;41.00;;;;;;10437821;28;20236;-67
2023/01/04 20:34:09;;;;;;;1.50;1.40;;;13.60;41.10;;;;;;10447388;28;20224;-67
2023/01/04 20:39:13;;;;;;;1.20;1.20;;;13.70;40.90;;;;;;10447323;28;20728;-67
2023/01/04 20:44:16;;;;;;;1.90;1.80;;;13.70;41.00;;;;;;10443005;28;20291;-67
2023/01/04 20:49:20;;;;;;;1.90;1.30;;;13.80;41.00;;;;;;10440277;28;20236;-73
2023/01/04 20:54:23;;;;;;;2.07;1.40;;;13.70;40.80;;;;;;10456251;28;20700;-72
2023/01/04 20:59:27;;;;;;;1.30;1.20;;;13.80;40.90;;;;;;10469692;28;20714;-73
2023/01/04 21:04:31;;;;;;;1.80;1.70;;;13.80;40.90;;;;;;10463959;28;20228;-72
2023/01/04 21:09:34;;;;;;;2.20;1.80;;;13.80;40.80;;;;;;10458150;28;20233;-73
2023/01/04 21:14:38;;;;;;;1.60;1.50;;;13.80;40.90;;;;;;10443188;28;20228;-68
2023/01/04 21:19:43;;;;;;;1.67;1.57;;;13.80;40.90;;;;;;10456137;28;20715;-68
2023/01/04 21:24:46;;;;;;;1.60;1.50;;;13.80;40.60;;;;;;10456629;28;21014;-73
2023/01/04 21:29:49;;;;;;;1.93;1.30;;;13.80;40.80;;;;;;10450508;28;20925;-68
2023/01/04 21:34:54;;;;;;;1.20;1.20;;;13.90;41.00;;;;;;10442080;28;20719;-68
2023/01/04 21:39:57;;;;;;;1.23;1.17;;;13.90;40.90;;;;;;10440326;28;20233;-68
2023/01/04 21:45:00;;;;;;;1.30;1.23;;;13.90;40.90;;;;;;10437037;28;20232;-68
2023/01/04 21:50:05;;;;;;;1.37;1.17;;;13.90;40.90;;;;;;10439217;28;20232;-68
2023/01/04 21:55:15;;;;;;;0.90;0.90;;;13.90;40.90;;;;;;10439744;28;20261;-68
2023/01/04 22:00:18;;;;;;;1.37;1.00;;;13.90;41.00;;;;;;10429548;28;20949;-66
2023/01/04 22:05:23;;;;;;;1.10;1.00;;;13.90;41.10;;;;;;10437381;28;21396;-67
2023/01/04 22:10:26;;;;;;;0.90;0.90;;;14.00;41.20;;;;;;10425774;28;20600;-67
2023/01/04 22:15:29;;;;;;;1.10;1.10;;;13.90;41.20;;;;;;10437785;28;20240;-66
2023/01/04 22:20:34;;;;;;;1.07;1.07;;;14.00;41.30;;;;;;10426597;28;20241;-67
2023/01/04 22:25:37;;;;;;;1.30;1.07;;;14.00;41.30;;;;;;10443040;28;20736;-68
2023/01/04 22:30:41;;;;;;;1.00;1.00;;;14.00;41.30;;;;;;10439502;28;20233;-69
2023/01/04 22:35:46;;;;;;;0.97;0.97;;;14.00;41.30;;;;;;10441597;28;20232;-69
2023/01/04 22:40:49;;;;;;;1.00;1.00;;;14.00;41.30;;;;;;10441870;28;20229;-68
2023/01/04 22:45:59;;;;;;;1.20;1.10;;;14.00;41.30;;;;;;10433740;28;20221;-68
2023/01/04 22:51:06;;;;;;;0.90;0.90;;;14.00;41.30;;;;;;10434753;28;20228;-68
2023/01/04 22:56:12;;;;;;;1.20;1.17;;;14.00;41.30;;;;;;10430111;28;20240;-68
2023/01/04 23:01:26;;;;;;;2.90;0.90;;;14.00;41.40;;;;;;10440887;28;20305;-68
2023/01/04 23:06:32;;;;;;;1.00;0.90;;;14.00;41.50;;;;;;10439670;28;20236;-68
2023/01/04 23:11:36;;;;;;;0.90;0.90;;;14.00;41.50;;;;;;10431865;28;20228;-69
2023/01/04 23:16:39;;;;;;;1.53;0.90;;;14.00;41.50;;;;;;10437159;28;20255;-68
2023/01/04 23:21:44;;;;;;;1.03;0.97;;;14.00;41.40;;;;;;10439310;28;20233;-69
2023/01/04 23:26:47;;;;;;;1.10;1.00;;;14.00;41.50;;;;;;10442317;28;20754;-68
2023/01/04 23:31:50;;;;;;;1.00;1.00;;;14.00;41.60;;;;;;10431954;28;20225;-68
2023/01/04 23:36:55;;;;;;;1.10;1.00;;;14.10;41.60;;;;;;10447878;28;20259;-68
2023/01/04 23:41:58;;;;;;;1.27;0.80;;;14.10;41.60;;;;;;10441513;28;20589;-68
2023/01/04 23:47:04;;;;;;;1.00;1.00;;;14.10;41.60;;;;;;10450626;28;20753;-68
2023/01/04 23:52:07;;;;;;;0.90;0.90;;;14.10;41.60;;;;;;10444231;28;20771;-68
2023/01/04 23:57:11;;;;;;;0.87;0.87;;;14.10;41.50;;;;;;10452821;28;20283;-68
